Accueil
METAR-TAF:

METAR-TAF

Aéroports :

Wattisham, Angleterre

latitude: 52-07N, longitude: 000-58E, altitude: 87 m

Observation

Le bulletin a été fait il y a 23 minutes, à 18:50 UTC
Vent 15 kt de ouest
Température 22°C
Humidité 57%
Pression 1017 hPa
Visibilité 10 km ou plus
Quelques nuages à une hauteur de 3500 ft

METAR: EGUW 201850Z 26015KT 9999 FEW035 22/13 Q1017 BLU NOSIG

Heure: 20:13 (19:13 UTC)

Prévision

Le bulletin a été fait il y a 2 heures et 44 minutes, à 16:29 UTC
Prévision valable du 20 à 18 UTC au 21 à 02 UTC
Vent 10 kt de ouest/sud-ouest
Visibilité 10 km ou plus
Nuages épars à une hauteur de 3500 ft

TAF: EGUW 201629Z 2018/2102 24010KT 9999 SCT035

Observations et prévisions météorologiques de plus de 4000 aéroports (messages METAR et TAF).

Les stations disponibles sont représentées par des disques jaunes et rouges sur la carte.

Passer la souris dessus pour voir le nom de la station.

Cliquer dessus pour voir les observations et prévisions météorologiques.

Pour changer de carte: cliquez sur les boutons verts avec une croix noire pour zoomer, sur le bouton vert avec un tiret pour effectuer un zoom arrière, ou sur les flèches vertes pour les cartes adjacentes.


METAR-TAF: